sensor_id;sensor_type;location;lat;lon;timestamp;pressure;altitude;pressure_sealevel;temperature;humidity
8286;BME280;4181;43.416;24.598;2023-05-19T00:00:51;99913.84;;;15.79;100.00
8286;BME280;4181;43.416;24.598;2023-05-19T00:03:17;99904.00;;;15.73;100.00
8286;BME280;4181;43.416;24.598;2023-05-19T00:05:47;99900.72;;;15.71;100.00
8286;BME280;4181;43.416;24.598;2023-05-19T00:08:15;99887.84;;;15.67;100.00
8286;BME280;4181;43.416;24.598;2023-05-19T00:10:41;99885.41;;;15.65;100.00
8286;BME280;4181;43.416;24.598;2023-05-19T00:13:07;99877.16;;;15.65;100.00
8286;BME280;4181;43.416;24.598;2023-05-19T00:15:33;99872.69;;;15.69;100.00
8286;BME280;4181;43.416;24.598;2023-05-19T00:18:00;99869.50;;;15.57;100.00
8286;BME280;4181;43.416;24.598;2023-05-19T00:20:26;99871.69;;;15.60;100.00
8286;BME280;4181;43.416;24.598;2023-05-19T00:22:51;99862.81;;;15.68;100.00
8286;BME280;4181;43.416;24.598;2023-05-19T00:25:17;99853.38;;;15.74;100.00
8286;BME280;4181;43.416;24.598;2023-05-19T00:27:42;99857.44;;;15.82;100.00
8286;BME280;4181;43.416;24.598;2023-05-19T00:30:08;99869.72;;;15.89;100.00
8286;BME280;4181;43.416;24.598;2023-05-19T00:32:33;99876.34;;;15.88;100.00
8286;BME280;4181;43.416;24.598;2023-05-19T00:34:59;99883.72;;;15.93;100.00
8286;BME280;4181;43.416;24.598;2023-05-19T00:37:25;99878.84;;;15.85;100.00
8286;BME280;4181;43.416;24.598;2023-05-19T00:39:51;99887.41;;;15.83;100.00
8286;BME280;4181;43.416;24.598;2023-05-19T00:42:16;99891.72;;;15.89;100.00
8286;BME280;4181;43.416;24.598;2023-05-19T00:44:41;99899.28;;;15.79;100.00
8286;BME280;4181;43.416;24.598;2023-05-19T00:47:07;99888.03;;;15.75;100.00
8286;BME280;4181;43.416;24.598;2023-05-19T00:49:33;99886.88;;;15.81;100.00
8286;BME280;4181;43.416;24.598;2023-05-19T00:52:00;99884.13;;;15.81;100.00
8286;BME280;4181;43.416;24.598;2023-05-19T00:54:27;99899.09;;;15.70;100.00
8286;BME280;4181;43.416;24.598;2023-05-19T00:56:55;99889.13;;;15.74;100.00
8286;BME280;4181;43.416;24.598;2023-05-19T00:59:22;99879.56;;;15.72;100.00
8286;BME280;4181;43.416;24.598;2023-05-19T01:01:48;99879.56;;;15.72;100.00
8286;BME280;4181;43.416;24.598;2023-05-19T01:04:20;99888.19;;;15.60;100.00
8286;BME280;4181;43.416;24.598;2023-05-19T01:06:49;99879.41;;;15.58;100.00
8286;BME280;4181;43.416;24.598;2023-05-19T01:09:22;99872.25;;;15.57;100.00
8286;BME280;4181;43.416;24.598;2023-05-19T01:11:49;99869.44;;;15.62;100.00
8286;BME280;4181;43.416;24.598;2023-05-19T01:14:14;99876.66;;;15.58;100.00
8286;BME280;4181;43.416;24.598;2023-05-19T01:16:50;99880.19;;;15.64;100.00
8286;BME280;4181;43.416;24.598;2023-05-19T01:24:49;99881.69;;;15.51;100.00
8286;BME280;4181;43.416;24.598;2023-05-19T01:27:49;99885.25;;;15.52;100.00
8286;BME280;4181;43.416;24.598;2023-05-19T01:30:29;99868.56;;;15.43;100.00
8286;BME280;4181;43.416;24.598;2023-05-19T01:33:03;99858.94;;;15.41;100.00
8286;BME280;4181;43.416;24.598;2023-05-19T01:35:31;99853.81;;;15.29;100.00
8286;BME280;4181;43.416;24.598;2023-05-19T01:37:59;99860.50;;;15.18;100.00
8286;BME280;4181;43.416;24.598;2023-05-19T01:40:26;99855.47;;;15.30;100.00
8286;BME280;4181;43.416;24.598;2023-05-19T01:42:53;99850.81;;;15.25;100.00
8286;BME280;4181;43.416;24.598;2023-05-19T01:45:19;99846.09;;;15.31;100.00
8286;BME280;4181;43.416;24.598;2023-05-19T01:47:47;99851.25;;;15.38;100.00
8286;BME280;4181;43.416;24.598;2023-05-19T01:50:13;99857.56;;;15.38;100.00
8286;BME280;4181;43.416;24.598;2023-05-19T01:52:38;99860.91;;;15.35;100.00
8286;BME280;4181;43.416;24.598;2023-05-19T01:55:04;99869.16;;;15.35;100.00
8286;BME280;4181;43.416;24.598;2023-05-19T02:00:18;99871.91;;;15.40;100.00
8286;BME280;4181;43.416;24.598;2023-05-19T02:02:59;99877.50;;;15.25;100.00
8286;BME280;4181;43.416;24.598;2023-05-19T02:05:35;99869.59;;;15.18;100.00
8286;BME280;4181;43.416;24.598;2023-05-19T02:08:32;99862.25;;;15.38;100.00
8286;BME280;4181;43.416;24.598;2023-05-19T02:11:33;99879.56;;;15.43;100.00
8286;BME280;4181;43.416;24.598;2023-05-19T02:13:55;99893.59;;;15.37;100.00
8286;BME280;4181;43.416;24.598;2023-05-19T02:16:27;99893.59;;;15.37;100.00
8286;BME280;4181;43.416;24.598;2023-05-19T02:18:53;99892.28;;;15.29;100.00
8286;BME280;4181;43.416;24.598;2023-05-19T02:21:19;99901.94;;;15.27;100.00
8286;BME280;4181;43.416;24.598;2023-05-19T02:23:45;99903.53;;;15.33;100.00
8286;BME280;4181;43.416;24.598;2023-05-19T02:26:10;99911.59;;;15.19;100.00
8286;BME280;4181;43.416;24.598;2023-05-19T02:28:36;99884.50;;;15.07;100.00
8286;BME280;4181;43.416;24.598;2023-05-19T02:31:02;99893.78;;;15.16;100.00
8286;BME280;4181;43.416;24.598;2023-05-19T02:33:29;99894.59;;;15.17;100.00
8286;BME280;4181;43.416;24.598;2023-05-19T02:35:56;99888.81;;;15.18;100.00
8286;BME280;4181;43.416;24.598;2023-05-19T02:38:21;99897.78;;;15.29;100.00
8286;BME280;4181;43.416;24.598;2023-05-19T02:40:47;99895.06;;;15.24;100.00
8286;BME280;4181;43.416;24.598;2023-05-19T02:43:12;99900.19;;;15.07;100.00
8286;BME280;4181;43.416;24.598;2023-05-19T02:45:38;99898.41;;;15.21;100.00
8286;BME280;4181;43.416;24.598;2023-05-19T02:48:03;99903.00;;;15.31;100.00
8286;BME280;4181;43.416;24.598;2023-05-19T02:50:29;99908.00;;;15.23;100.00
8286;BME280;4181;43.416;24.598;2023-05-19T02:52:54;99932.50;;;15.20;100.00
8286;BME280;4181;43.416;24.598;2023-05-19T02:55:19;99924.88;;;15.12;100.00
8286;BME280;4181;43.416;24.598;2023-05-19T02:57:45;99922.63;;;15.14;100.00
8286;BME280;4181;43.416;24.598;2023-05-19T03:00:11;99924.81;;;15.22;100.00
8286;BME280;4181;43.416;24.598;2023-05-19T03:02:36;99933.81;;;15.27;100.00
8286;BME280;4181;43.416;24.598;2023-05-19T03:05:02;99936.56;;;15.27;100.00
8286;BME280;4181;43.416;24.598;2023-05-19T03:07:28;99947.25;;;15.29;100.00
8286;BME280;4181;43.416;24.598;2023-05-19T03:09:53;99949.50;;;15.27;100.00
8286;BME280;4181;43.416;24.598;2023-05-19T03:12:19;99958.25;;;15.29;100.00
8286;BME280;4181;43.416;24.598;2023-05-19T03:14:45;99955.53;;;15.24;100.00
8286;BME280;4181;43.416;24.598;2023-05-19T03:17:10;99959.16;;;15.19;100.00
8286;BME280;4181;43.416;24.598;2023-05-19T03:19:36;99957.22;;;15.20;100.00
8286;BME280;4181;43.416;24.598;2023-05-19T03:22:02;99966.09;;;15.12;100.00
8286;BME280;4181;43.416;24.598;2023-05-19T03:24:27;99968.28;;;15.10;100.00
8286;BME280;4181;43.416;24.598;2023-05-19T03:26:53;99967.47;;;15.09;100.00
8286;BME280;4181;43.416;24.598;2023-05-19T03:29:18;99969.91;;;15.16;100.00
8286;BME280;4181;43.416;24.598;2023-05-19T03:31:44;99979.22;;;15.20;100.00
8286;BME280;4181;43.416;24.598;2023-05-19T03:34:09;99980.41;;;15.04;100.00
8286;BME280;4181;43.416;24.598;2023-05-19T03:36:35;99982.56;;;15.17;100.00
8286;BME280;4181;43.416;24.598;2023-05-19T03:39:04;99980.28;;;15.24;100.00
8286;BME280;4181;43.416;24.598;2023-05-19T03:41:31;99979.44;;;15.29;100.00
8286;BME280;4181;43.416;24.598;2023-05-19T03:43:56;99988.50;;;15.29;100.00
8286;BME280;4181;43.416;24.598;2023-05-19T03:46:22;100003.38;;;15.23;100.00
8286;BME280;4181;43.416;24.598;2023-05-19T03:48:47;99994.84;;;15.24;100.00
8286;BME280;4181;43.416;24.598;2023-05-19T03:51:13;99993.75;;;15.20;100.00
8286;BME280;4181;43.416;24.598;2023-05-19T03:53:38;100000.94;;;15.21;100.00
8286;BME280;4181;43.416;24.598;2023-05-19T03:56:04;99995.63;;;15.35;100.00
8286;BME280;4181;43.416;24.598;2023-05-19T03:58:31;100004.16;;;15.34;100.00
8286;BME280;4181;43.416;24.598;2023-05-19T04:00:57;100005.13;;;15.04;100.00
8286;BME280;4181;43.416;24.598;2023-05-19T04:03:22;99998.03;;;14.98;100.00
8286;BME280;4181;43.416;24.598;2023-05-19T04:05:50;99980.69;;;15.02;100.00
8286;BME280;4181;43.416;24.598;2023-05-19T04:08:15;99981.13;;;15.19;100.00
8286;BME280;4181;43.416;24.598;2023-05-19T04:10:41;99975.03;;;15.27;100.00
8286;BME280;4181;43.416;24.598;2023-05-19T04:13:06;99980.78;;;15.31;100.00
8286;BME280;4181;43.416;24.598;2023-05-19T04:15:32;99983.16;;;15.48;100.00
8286;BME280;4181;43.416;24.598;2023-05-19T04:17:57;99987.78;;;15.52;100.00
8286;BME280;4181;43.416;24.598;2023-05-19T04:20:23;99984.41;;;15.65;100.00
8286;BME280;4181;43.416;24.598;2023-05-19T04:22:48;99986.44;;;15.83;100.00
8286;BME280;4181;43.416;24.598;2023-05-19T04:25:14;99990.25;;;15.87;100.00
8286;BME280;4181;43.416;24.598;2023-05-19T04:27:39;99986.00;;;16.00;100.00
8286;BME280;4181;43.416;24.598;2023-05-19T04:30:05;99991.66;;;16.37;100.00
8286;BME280;4181;43.416;24.598;2023-05-19T04:32:31;99995.56;;;16.60;100.00
8286;BME280;4181;43.416;24.598;2023-05-19T04:34:56;100016.50;;;16.79;100.00
8286;BME280;4181;43.416;24.598;2023-05-19T04:37:26;100023.06;;;17.07;100.00
8286;BME280;4181;43.416;24.598;2023-05-19T04:39:52;100029.75;;;17.38;100.00
8286;BME280;4181;43.416;24.598;2023-05-19T04:42:18;100048.34;;;17.69;100.00
8286;BME280;4181;43.416;24.598;2023-05-19T04:44:44;100068.25;;;17.85;100.00
8286;BME280;4181;43.416;24.598;2023-05-19T04:47:10;100090.09;;;18.00;100.00
8286;BME280;4181;43.416;24.598;2023-05-19T04:49:36;100124.16;;;18.09;100.00
8286;BME280;4181;43.416;24.598;2023-05-19T04:52:09;100139.06;;;18.27;100.00
8286;BME280;4181;43.416;24.598;2023-05-19T04:54:35;100154.34;;;18.38;100.00
8286;BME280;4181;43.416;24.598;2023-05-19T04:57:01;100154.63;;;18.36;100.00
8286;BME280;4181;43.416;24.598;2023-05-19T04:59:27;100169.28;;;18.55;100.00
8286;BME280;4181;43.416;24.598;2023-05-19T05:01:52;100179.19;;;18.56;100.00
8286;BME280;4181;43.416;24.598;2023-05-19T05:04:18;100178.00;;;18.62;100.00
8286;BME280;4181;43.416;24.598;2023-05-19T05:06:44;100184.78;;;18.83;100.00
8286;BME280;4181;43.416;24.598;2023-05-19T05:09:15;100184.31;;;19.09;100.00
8286;BME280;4181;43.416;24.598;2023-05-19T05:11:41;100196.00;;;19.06;100.00
8286;BME280;4181;43.416;24.598;2023-05-19T05:14:07;100199.41;;;19.30;100.00
8286;BME280;4181;43.416;24.598;2023-05-19T05:16:33;100210.28;;;19.40;100.00
8286;BME280;4181;43.416;24.598;2023-05-19T05:19:00;100213.66;;;19.64;100.00
8286;BME280;4181;43.416;24.598;2023-05-19T05:21:27;100224.50;;;19.87;100.00
8286;BME280;4181;43.416;24.598;2023-05-19T05:23:53;100246.38;;;19.62;100.00
8286;BME280;4181;43.416;24.598;2023-05-19T05:26:19;100244.91;;;19.78;100.00
8286;BME280;4181;43.416;24.598;2023-05-19T05:28:48;100233.63;;;19.88;100.00
8286;BME280;4181;43.416;24.598;2023-05-19T05:31:14;100235.06;;;19.72;100.00
8286;BME280;4181;43.416;24.598;2023-05-19T05:33:40;100233.78;;;20.05;100.00
8286;BME280;4181;43.416;24.598;2023-05-19T05:36:06;100232.50;;;20.38;100.00
8286;BME280;4181;43.416;24.598;2023-05-19T05:38:32;100241.72;;;20.69;100.00
8286;BME280;4181;43.416;24.598;2023-05-19T05:40:57;100259.22;;;20.78;100.00
8286;BME280;4181;43.416;24.598;2023-05-19T05:43:23;100260.59;;;21.03;100.00
8286;BME280;4181;43.416;24.598;2023-05-19T05:45:48;100248.06;;;21.14;100.00
8286;BME280;4181;43.416;24.598;2023-05-19T05:48:14;100274.84;;;20.96;100.00
8286;BME280;4181;43.416;24.598;2023-05-19T05:50:42;100263.88;;;20.91;100.00
8286;BME280;4181;43.416;24.598;2023-05-19T05:53:08;100258.53;;;21.17;100.00
8286;BME280;4181;43.416;24.598;2023-05-19T05:55:34;100268.28;;;21.45;100.00
8286;BME280;4181;43.416;24.598;2023-05-19T05:58:00;100271.47;;;21.61;100.00
8286;BME280;4181;43.416;24.598;2023-05-19T06:00:26;100275.66;;;21.80;100.00
8286;BME280;4181;43.416;24.598;2023-05-19T06:02:52;100279.97;;;22.03;100.00
8286;BME280;4181;43.416;24.598;2023-05-19T06:05:18;100276.25;;;22.25;100.00
8286;BME280;4181;43.416;24.598;2023-05-19T06:07:43;100282.31;;;22.35;100.00
8286;BME280;4181;43.416;24.598;2023-05-19T06:10:09;100310.50;;;21.86;100.00
8286;BME280;4181;43.416;24.598;2023-05-19T06:12:35;100322.28;;;21.30;100.00
8286;BME280;4181;43.416;24.598;2023-05-19T06:15:05;100312.81;;;21.31;100.00
8286;BME280;4181;43.416;24.598;2023-05-19T06:17:30;100297.34;;;21.70;100.00
8286;BME280;4181;43.416;24.598;2023-05-19T06:19:58;100283.41;;;22.09;100.00
8286;BME280;4181;43.416;24.598;2023-05-19T06:22:24;100297.00;;;22.19;100.00
8286;BME280;4181;43.416;24.598;2023-05-19T06:24:49;100289.34;;;22.33;100.00
8286;BME280;4181;43.416;24.598;2023-05-19T06:27:15;100296.91;;;22.49;100.00
8286;BME280;4181;43.416;24.598;2023-05-19T06:29:40;100296.13;;;22.66;100.00
8286;BME280;4181;43.416;24.598;2023-05-19T06:32:05;100309.97;;;22.49;100.00
8286;BME280;4181;43.416;24.598;2023-05-19T06:34:31;100296.78;;;22.63;100.00
8286;BME280;4181;43.416;24.598;2023-05-19T06:36:56;100287.72;;;23.00;100.00
8286;BME280;4181;43.416;24.598;2023-05-19T06:39:22;100292.78;;;23.15;100.00
8286;BME280;4181;43.416;24.598;2023-05-19T06:41:49;100301.44;;;23.22;100.00
8286;BME280;4181;43.416;24.598;2023-05-19T06:44:14;100297.06;;;23.30;100.00
8286;BME280;4181;43.416;24.598;2023-05-19T06:49:05;100298.22;;;23.66;100.00
8286;BME280;4181;43.416;24.598;2023-05-19T06:51:30;100309.97;;;23.80;100.00
8286;BME280;4181;43.416;24.598;2023-05-19T06:53:56;100305.19;;;23.90;100.00
8286;BME280;4181;43.416;24.598;2023-05-19T06:56:21;100297.41;;;24.04;100.00
8286;BME280;4181;43.416;24.598;2023-05-19T06:58:47;100303.81;;;23.96;100.00
8286;BME280;4181;43.416;24.598;2023-05-19T07:01:12;100305.88;;;24.16;100.00
8286;BME280;4181;43.416;24.598;2023-05-19T07:03:38;100307.94;;;24.27;100.00
8286;BME280;4181;43.416;24.598;2023-05-19T07:06:03;100301.22;;;24.49;100.00
8286;BME280;4181;43.416;24.598;2023-05-19T07:08:29;100314.19;;;24.24;100.00
8286;BME280;4181;43.416;24.598;2023-05-19T07:10:54;100311.97;;;24.59;100.00
8286;BME280;4181;43.416;24.598;2023-05-19T07:13:20;100301.31;;;24.81;100.00
8286;BME280;4181;43.416;24.598;2023-05-19T07:15:46;100305.44;;;24.96;100.00
8286;BME280;4181;43.416;24.598;2023-05-19T07:18:13;100308.88;;;24.81;100.00
8286;BME280;4181;43.416;24.598;2023-05-19T07:20:39;100314.97;;;24.54;100.00
8286;BME280;4181;43.416;24.598;2023-05-19T07:23:05;100303.13;;;24.57;100.00
8286;BME280;4181;43.416;24.598;2023-05-19T07:25:30;100297.16;;;24.87;100.00
8286;BME280;4181;43.416;24.598;2023-05-19T07:27:56;100295.81;;;25.06;100.00
8286;BME280;4181;43.416;24.598;2023-05-19T07:30:21;100302.88;;;25.24;100.00
8286;BME280;4181;43.416;24.598;2023-05-19T07:32:47;100288.66;;;25.49;100.00
8286;BME280;4181;43.416;24.598;2023-05-19T07:35:12;100289.16;;;25.63;100.00
8286;BME280;4181;43.416;24.598;2023-05-19T07:37:38;100282.88;;;25.78;100.00
8286;BME280;4181;43.416;24.598;2023-05-19T07:40:04;100287.88;;;25.85;100.00
8286;BME280;4181;43.416;24.598;2023-05-19T07:42:31;100277.50;;;25.97;100.00
8286;BME280;4181;43.416;24.598;2023-05-19T07:44:56;100273.72;;;26.02;100.00
8286;BME280;4181;43.416;24.598;2023-05-19T07:47:21;100276.34;;;26.10;100.00
8286;BME280;4181;43.416;24.598;2023-05-19T07:49:47;100272.84;;;26.26;100.00
8286;BME280;4181;43.416;24.598;2023-05-19T07:52:12;100268.41;;;26.37;100.00
8286;BME280;4181;43.416;24.598;2023-05-19T07:54:38;100269.19;;;26.49;100.00
8286;BME280;4181;43.416;24.598;2023-05-19T07:57:03;100269.41;;;26.56;100.00
8286;BME280;4181;43.416;24.598;2023-05-19T07:59:29;100275.00;;;26.56;100.00
8286;BME280;4181;43.416;24.598;2023-05-19T08:01:54;100282.13;;;26.54;100.00
8286;BME280;4181;43.416;24.598;2023-05-19T08:04:20;100276.78;;;26.49;100.00
8286;BME280;4181;43.416;24.598;2023-05-19T08:06:45;100282.88;;;26.39;100.00
8286;BME280;4181;43.416;24.598;2023-05-19T08:09:10;100281.69;;;26.28;100.00
8286;BME280;4181;43.416;24.598;2023-05-19T08:11:36;100292.66;;;26.20;100.00
8286;BME280;4181;43.416;24.598;2023-05-19T08:14:02;100282.41;;;26.37;100.00
8286;BME280;4181;43.416;24.598;2023-05-19T08:16:27;100283.97;;;26.62;100.00
8286;BME280;4181;43.416;24.598;2023-05-19T08:18:53;100288.38;;;26.75;100.00
8286;BME280;4181;43.416;24.598;2023-05-19T08:21:19;100290.63;;;26.97;100.00
8286;BME280;4181;43.416;24.598;2023-05-19T08:23:45;100292.66;;;27.12;100.00
8286;BME280;4181;43.416;24.598;2023-05-19T08:26:11;100291.34;;;27.21;100.00
8286;BME280;4181;43.416;24.598;2023-05-19T08:28:36;100300.19;;;26.96;100.00
8286;BME280;4181;43.416;24.598;2023-05-19T08:31:02;100312.44;;;26.64;100.00
8286;BME280;4181;43.416;24.598;2023-05-19T08:33:27;100319.84;;;26.32;100.00
8286;BME280;4181;43.416;24.598;2023-05-19T08:35:54;100319.44;;;25.97;100.00
8286;BME280;4181;43.416;24.598;2023-05-19T08:38:22;100324.13;;;26.17;100.00
8286;BME280;4181;43.416;24.598;2023-05-19T08:40:47;100311.41;;;26.44;100.00
8286;BME280;4181;43.416;24.598;2023-05-19T08:43:13;100314.78;;;26.50;100.00
8286;BME280;4181;43.416;24.598;2023-05-19T08:45:42;100311.72;;;26.79;100.00
8286;BME280;4181;43.416;24.598;2023-05-19T08:48:07;100299.50;;;26.99;100.00
8286;BME280;4181;43.416;24.598;2023-05-19T08:50:36;100305.28;;;27.06;100.00
8286;BME280;4181;43.416;24.598;2023-05-19T08:53:14;100310.00;;;27.02;100.00
8286;BME280;4181;43.416;24.598;2023-05-19T08:55:54;100299.63;;;27.18;100.00
8286;BME280;4181;43.416;24.598;2023-05-19T08:58:23;100297.75;;;27.22;100.00
8286;BME280;4181;43.416;24.598;2023-05-19T09:00:49;100305.13;;;27.14;100.00
8286;BME280;4181;43.416;24.598;2023-05-19T09:03:15;100286.75;;;27.29;100.00
8286;BME280;4181;43.416;24.598;2023-05-19T09:05:41;100300.66;;;27.25;100.00
8286;BME280;4181;43.416;24.598;2023-05-19T09:08:07;100290.50;;;27.21;100.00
8286;BME280;4181;43.416;24.598;2023-05-19T09:10:32;100302.44;;;27.18;100.00
8286;BME280;4181;43.416;24.598;2023-05-19T09:12:58;100292.69;;;27.27;100.00
8286;BME280;4181;43.416;24.598;2023-05-19T09:15:26;100295.47;;;27.39;100.00
8286;BME280;4181;43.416;24.598;2023-05-19T09:18:06;100290.84;;;27.31;100.00
8286;BME280;4181;43.416;24.598;2023-05-19T09:20:35;100284.34;;;27.43;100.00
8286;BME280;4181;43.416;24.598;2023-05-19T09:23:01;100287.44;;;27.54;100.00
8286;BME280;4181;43.416;24.598;2023-05-19T09:25:27;100297.38;;;27.51;100.00
8286;BME280;4181;43.416;24.598;2023-05-19T09:27:53;100291.50;;;27.56;100.00
8286;BME280;4181;43.416;24.598;2023-05-19T09:30:19;100302.25;;;27.70;100.00
8286;BME280;4181;43.416;24.598;2023-05-19T09:32:45;100295.94;;;27.88;100.00
8286;BME280;4181;43.416;24.598;2023-05-19T09:35:12;100287.75;;;27.95;100.00
8286;BME280;4181;43.416;24.598;2023-05-19T09:37:39;100279.13;;;28.04;100.00
8286;BME280;4181;43.416;24.598;2023-05-19T09:40:09;100283.94;;;28.03;100.00
8286;BME280;4181;43.416;24.598;2023-05-19T09:42:37;100278.13;;;27.96;100.00
8286;BME280;4181;43.416;24.598;2023-05-19T09:45:03;100282.91;;;27.80;100.00
8286;BME280;4181;43.416;24.598;2023-05-19T09:47:38;100287.44;;;27.85;100.00
8286;BME280;4181;43.416;24.598;2023-05-19T09:50:05;100287.06;;;27.86;100.00
8286;BME280;4181;43.416;24.598;2023-05-19T09:52:39;100291.44;;;27.84;100.00
8286;BME280;4181;43.416;24.598;2023-05-19T09:55:11;100280.41;;;27.91;100.00
8286;BME280;4181;43.416;24.598;2023-05-19T09:57:38;100280.47;;;28.10;100.00
8286;BME280;4181;43.416;24.598;2023-05-19T10:00:08;100279.38;;;27.68;100.00
8286;BME280;4181;43.416;24.598;2023-05-19T10:02:44;100284.72;;;27.73;100.00
8286;BME280;4181;43.416;24.598;2023-05-19T10:05:15;100285.00;;;27.52;100.00
8286;BME280;4181;43.416;24.598;2023-05-19T10:08:00;100282.47;;;27.47;100.00
8286;BME280;4181;43.416;24.598;2023-05-19T10:10:27;100290.56;;;27.09;100.00
8286;BME280;4181;43.416;24.598;2023-05-19T10:12:54;100284.28;;;27.12;100.00
8286;BME280;4181;43.416;24.598;2023-05-19T10:15:19;100282.81;;;27.18;100.00
8286;BME280;4181;43.416;24.598;2023-05-19T10:17:45;100283.13;;;27.01;100.00
8286;BME280;4181;43.416;24.598;2023-05-19T10:20:15;100264.00;;;27.46;100.00
8286;BME280;4181;43.416;24.598;2023-05-19T10:22:44;100263.00;;;27.70;100.00
8286;BME280;4181;43.416;24.598;2023-05-19T10:25:10;100256.84;;;27.80;100.00
8286;BME280;4181;43.416;24.598;2023-05-19T10:27:41;100257.63;;;27.92;100.00
8286;BME280;4181;43.416;24.598;2023-05-19T10:30:19;100251.63;;;27.94;100.00
8286;BME280;4181;43.416;24.598;2023-05-19T10:32:46;100261.81;;;27.86;100.00
8286;BME280;4181;43.416;24.598;2023-05-19T10:40:36;100260.56;;;27.84;100.00
8286;BME280;4181;43.416;24.598;2023-05-19T10:43:24;100253.72;;;27.97;100.00
8286;BME280;4181;43.416;24.598;2023-05-19T10:45:52;100255.31;;;28.13;100.00
8286;BME280;4181;43.416;24.598;2023-05-19T10:48:19;100257.75;;;28.15;100.00
8286;BME280;4181;43.416;24.598;2023-05-19T10:50:48;100254.25;;;28.02;100.00
8286;BME280;4181;43.416;24.598;2023-05-19T10:53:17;100245.03;;;28.21;100.00
8286;BME280;4181;43.416;24.598;2023-05-19T10:55:54;100254.28;;;28.21;100.00
8286;BME280;4181;43.416;24.598;2023-05-19T10:58:35;100254.16;;;27.83;100.00
8286;BME280;4181;43.416;24.598;2023-05-19T11:01:06;100261.47;;;27.41;100.00
8286;BME280;4181;43.416;24.598;2023-05-19T11:03:43;100256.16;;;27.52;100.00
8286;BME280;4181;43.416;24.598;2023-05-19T11:06:28;100257.13;;;27.59;100.00
8286;BME280;4181;43.416;24.598;2023-05-19T11:09:13;100261.69;;;27.20;100.00
8286;BME280;4181;43.416;24.598;2023-05-19T11:11:52;100255.53;;;27.15;100.00
8286;BME280;4181;43.416;24.598;2023-05-19T11:14:22;100241.78;;;27.69;100.00
8286;BME280;4181;43.416;24.598;2023-05-19T11:16:51;100244.00;;;27.48;100.00
8286;BME280;4181;43.416;24.598;2023-05-19T11:21:50;100239.34;;;27.67;100.00
8286;BME280;4181;43.416;24.598;2023-05-19T11:24:36;100236.03;;;27.81;100.00
8286;BME280;4181;43.416;24.598;2023-05-19T11:27:30;100235.34;;;27.84;100.00
8286;BME280;4181;43.416;24.598;2023-05-19T11:32:34;100231.84;;;28.21;100.00
8286;BME280;4181;43.416;24.598;2023-05-19T11:35:04;100222.84;;;28.31;100.00
8286;BME280;4181;43.416;24.598;2023-05-19T11:37:33;100222.84;;;27.97;100.00
8286;BME280;4181;43.416;24.598;2023-05-19T11:40:05;100214.84;;;28.14;100.00
8286;BME280;4181;43.416;24.598;2023-05-19T11:42:43;100210.78;;;28.31;100.00
8286;BME280;4181;43.416;24.598;2023-05-19T11:45:09;100210.84;;;28.50;100.00
8286;BME280;4181;43.416;24.598;2023-05-19T11:47:35;100204.88;;;28.71;100.00
8286;BME280;4181;43.416;24.598;2023-05-19T11:50:00;100217.97;;;28.28;100.00
8286;BME280;4181;43.416;24.598;2023-05-19T11:52:26;100229.00;;;27.71;100.00
8286;BME280;4181;43.416;24.598;2023-05-19T11:54:52;100214.59;;;27.88;100.00
8286;BME280;4181;43.416;24.598;2023-05-19T11:57:18;100208.28;;;27.91;100.00
8286;BME280;4181;43.416;24.598;2023-05-19T11:59:44;100205.91;;;28.09;100.00
8286;BME280;4181;43.416;24.598;2023-05-19T12:04:38;100199.28;;;28.36;100.00
8286;BME280;4181;43.416;24.598;2023-05-19T12:07:03;100184.16;;;28.59;100.00
8286;BME280;4181;43.416;24.598;2023-05-19T12:09:29;100193.63;;;28.71;100.00
8286;BME280;4181;43.416;24.598;2023-05-19T12:11:54;100196.00;;;28.49;100.00
8286;BME280;4181;43.416;24.598;2023-05-19T12:14:20;100207.53;;;28.10;100.00
8286;BME280;4181;43.416;24.598;2023-05-19T12:16:45;100212.06;;;27.83;100.00
8286;BME280;4181;43.416;24.598;2023-05-19T12:19:11;100215.53;;;27.30;100.00
8286;BME280;4181;43.416;24.598;2023-05-19T12:21:36;100216.56;;;27.10;100.00
8286;BME280;4181;43.416;24.598;2023-05-19T12:24:03;100204.72;;;27.01;100.00
8286;BME280;4181;43.416;24.598;2023-05-19T12:26:30;100206.69;;;26.85;100.00
8286;BME280;4181;43.416;24.598;2023-05-19T12:28:57;100204.34;;;26.87;100.00
8286;BME280;4181;43.416;24.598;2023-05-19T12:31:22;100200.50;;;27.07;100.00
8286;BME280;4181;43.416;24.598;2023-05-19T12:33:48;100193.50;;;27.28;100.00
8286;BME280;4181;43.416;24.598;2023-05-19T12:36:17;100187.88;;;27.44;100.00
8286;BME280;4181;43.416;24.598;2023-05-19T12:38:43;100184.25;;;27.59;100.00
8286;BME280;4181;43.416;24.598;2023-05-19T12:41:10;100182.84;;;27.84;100.00
8286;BME280;4181;43.416;24.598;2023-05-19T12:43:36;100176.88;;;28.01;100.00
8286;BME280;4181;43.416;24.598;2023-05-19T12:46:11;100179.44;;;28.25;100.00
8286;BME280;4181;43.416;24.598;2023-05-19T12:48:44;100180.59;;;28.24;100.00
8286;BME280;4181;43.416;24.598;2023-05-19T12:51:19;100186.97;;;28.06;100.00
8286;BME280;4181;43.416;24.598;2023-05-19T12:53:45;100178.69;;;28.28;100.00
8286;BME280;4181;43.416;24.598;2023-05-19T12:56:13;100177.06;;;28.27;100.00
8286;BME280;4181;43.416;24.598;2023-05-19T12:58:42;100179.44;;;28.25;100.00
8286;BME280;4181;43.416;24.598;2023-05-19T13:01:17;100200.50;;;27.85;100.00
8286;BME280;4181;43.416;24.598;2023-05-19T13:03:43;100233.63;;;27.48;100.00
8286;BME280;4181;43.416;24.598;2023-05-19T13:06:09;100304.75;;;25.76;100.00
8286;BME280;4181;43.416;24.598;2023-05-19T13:08:36;100334.16;;;23.97;100.00
8286;BME280;4181;43.416;24.598;2023-05-19T13:11:03;100361.13;;;22.22;100.00
8286;BME280;4181;43.416;24.598;2023-05-19T13:13:28;100367.44;;;21.45;100.00
8286;BME280;4181;43.416;24.598;2023-05-19T13:15:53;100390.03;;;20.94;100.00
8286;BME280;4181;43.416;24.598;2023-05-19T13:18:20;100404.94;;;20.35;100.00